MSC Leanne — 3EXH3 — position and weather

sailwx.info

Track history (hours):
 
Tides and Currents Weather Stations Pressure Air Temp Water Temp Dewpoint Dewpoint Depression Visibility Wind Speed Wind Dir Waves Ship Positions

MSC Leanne

Last reported at 2016-May-16 08:33 UTC. Time now 2016-May-24 23:28 UTC.
Position N 09°40' W 079°44'.
Warning: this ship's position is 8 days out of date.

Length 294 m; draft 13.3 m.

Type: Ship (hazmat cat A). MMSI: 357723000.

Date/timePositionNaut miles runAvg speedWind from/ knotsBaromVisibWave heightAir tempDewpointWater temp
2016-May-16 08:33N 09°40' W 079°44'1212.5
2016-May-16 07:34N 09°30' W 079°51'10 9.6
2016-May-16 06:34N 09°21' W 079°55'1 0.5
2016-May-16 05:32N 09°21' W 079°55'0 0.0
2016-May-16 04:32N 09°21' W 079°55'0 0.0
2016-May-16 03:32N 09°21' W 079°55'0 0.0
2016-May-16 02:33N 09°21' W 079°55'0 0.0
2016-May-16 01:32N 09°21' W 079°55'0 0.0
2016-May-16 00:33N 09°21' W 079°55'1 0.9
2016-May-15 23:33N 09°22' W 079°55'6 5.9
2016-May-15 22:33N 09°28' W 079°54'2 2.1
2016-May-15 21:34N 09°26' W 079°53'0 0.0
2016-May-15 20:33N 09°26' W 079°53'0 0.0
2016-May-15 19:33N 09°26' W 079°53'  
Track history (hours):
 
Tides and Currents Weather Stations Pressure Air Temp Water Temp Dewpoint Dewpoint Depression Visibility Wind Speed Wind Dir Waves Ship Positions

MSC Leanne

Last reported at 2016-May-16 08:33 UTC. Time now 2016-May-24 23:28 UTC.
Position N 09°40' W 079°44'.
Warning: this ship's position is 8 days out of date.

Length 294 m; draft 13.3 m.

Type: Ship (hazmat cat A). MMSI: 357723000.

Date/timePositionNaut miles runAvg speedWind from/ knotsBaromVisibWave heightAir tempDewpointWater temp
2016-May-16 08:33N 09°40' W 079°44'1212.5
2016-May-16 07:34N 09°30' W 079°51'10 9.6
2016-May-16 06:34N 09°21' W 079°55'1 0.5
2016-May-16 05:32N 09°21' W 079°55'0 0.0
2016-May-16 04:32N 09°21' W 079°55'0 0.0
2016-May-16 03:32N 09°21' W 079°55'0 0.0
2016-May-16 02:33N 09°21' W 079°55'0 0.0
2016-May-16 01:32N 09°21' W 079°55'0 0.0
2016-May-16 00:33N 09°21' W 079°55'1 0.9
2016-May-15 23:33N 09°22' W 079°55'6 5.9
2016-May-15 22:33N 09°28' W 079°54'2 2.1
2016-May-15 21:34N 09°26' W 079°53'0 0.0
2016-May-15 20:33N 09°26' W 079°53'0 0.0
2016-May-15 19:33N 09°26' W 079°53'  

Dump ship's entire track history